Time;durP1;ratioP1;P1;durP2;ratioP2;P2;SDS_P1;SDS_P2;PMS_P1;PMS_P2;Temp;Humidity;BMP_temperature;BMP_pressure;BME280_temperature;BME280_humidity;BME280_pressure;Samples;Min_cycle;Max_cycle;Signal;HPM_P1;HPM_P2
2022/05/28 00:01:26;;;;;;;7.50;1.83;;;;;;;12.65;100.00;99107.75;5014407;28;20029;-72
2022/05/28 00:03:57;;;;;;;8.55;2.03;;;;;;;12.74;100.00;99116.53;5011096;28;20034;-73
2022/05/28 00:06:24;;;;;;;16.98;2.30;;;;;;;12.64;100.00;99128.63;5009806;28;20088;-71
2022/05/28 00:08:50;;;;;;;5.13;1.70;;;;;;;12.47;100.00;99109.25;5009921;28;20500;-71
2022/05/28 00:11:24;;;;;;;9.82;2.53;;;;;;;12.58;100.00;99129.50;5013598;28;20068;-71
2022/05/28 00:13:50;;;;;;;5.38;1.60;;;;;;;12.54;100.00;99128.22;5014998;28;20030;-72
2022/05/28 00:16:16;;;;;;;8.50;1.95;;;;;;;12.30;100.00;99094.38;4996788;28;20496;-71
2022/05/28 00:18:43;;;;;;;4.20;1.90;;;;;;;12.32;100.00;99102.34;5010835;28;20527;-72
2022/05/28 00:21:10;;;;;;;10.70;1.98;;;;;;;12.39;100.00;99117.59;5007095;28;20483;-71
2022/05/28 00:23:37;;;;;;;10.55;1.98;;;;;;;12.37;100.00;99132.41;5012826;28;20479;-71
2022/05/28 00:26:04;;;;;;;4.05;1.70;;;;;;;12.23;100.00;99112.53;5010804;28;20394;-72
2022/05/28 00:28:29;;;;;;;10.18;1.90;;;;;;;12.28;100.00;99126.31;5007389;28;20026;-71
2022/05/28 00:30:55;;;;;;;6.25;1.70;;;;;;;12.21;100.00;99128.19;5013805;28;20028;-71
2022/05/28 00:33:21;;;;;;;8.57;1.60;;;;;;;12.23;100.00;99116.06;5010966;28;20018;-71
2022/05/28 00:35:46;;;;;;;7.63;1.67;;;;;;;12.16;100.00;99114.41;5010848;28;20392;-72
2022/05/28 00:38:11;;;;;;;8.48;1.83;;;;;;;12.16;100.00;99109.00;5007646;28;20034;-72
2022/05/28 00:40:37;;;;;;;6.75;1.80;;;;;;;12.27;100.00;99128.19;5013262;28;20026;-72
2022/05/28 00:43:05;;;;;;;7.18;1.80;;;;;;;12.18;100.00;99134.00;5012472;28;20079;-72
2022/05/28 00:45:32;;;;;;;5.53;1.55;;;;;;;12.20;100.00;99137.34;5013651;28;20038;-72
2022/05/28 00:48:02;;;;;;;7.80;1.70;;;;;;;12.09;100.00;99135.25;5008979;28;20566;-72
2022/05/28 00:50:27;;;;;;;9.05;1.52;;;;;;;12.03;100.00;99140.47;5010100;28;20030;-71
2022/05/28 00:52:53;;;;;;;9.02;1.25;;;;;;;11.96;100.00;99134.19;5011602;28;20036;-71
2022/05/28 00:55:19;;;;;;;8.43;1.80;;;;;;;11.98;100.00;99134.81;5012242;28;20036;-71
2022/05/28 00:57:45;;;;;;;11.50;1.75;;;;;;;11.88;100.00;99133.53;5004913;28;20030;-71
2022/05/28 01:00:17;;;;;;;7.40;1.70;;;;;;;11.74;100.00;99132.63;5008143;28;20423;-71
2022/05/28 01:02:51;;;;;;;9.10;1.33;;;;;;;11.93;100.00;99158.16;5013354;28;20025;-72
2022/05/28 01:05:31;;;;;;;6.72;1.45;;;;;;;11.89;100.00;99152.28;4999263;28;20019;-72
2022/05/28 01:08:09;;;;;;;9.10;1.63;;;;;;;11.77;100.00;99138.47;5005534;28;20050;-72
2022/05/28 01:11:03;;;;;;;6.05;1.85;;;;;;;11.92;100.00;99159.19;5010578;28;20034;-72
2022/05/28 01:13:43;;;;;;;6.50;1.33;;;;;;;11.87;100.00;99167.09;4999192;28;20488;-72
2022/05/28 01:16:23;;;;;;;11.85;1.67;;;;;;;11.73;100.00;99152.63;5013088;28;20030;-72
2022/05/28 01:18:54;;;;;;;7.15;2.13;;;;;;;11.76;100.00;99147.66;5008369;28;20070;-72
2022/05/28 01:21:29;;;;;;;9.43;1.50;;;;;;;11.77;100.00;99156.63;5007023;28;20125;-72
2022/05/28 01:24:07;;;;;;;10.93;1.50;;;;;;;11.74;100.00;99148.88;5010979;28;20490;-71
2022/05/28 01:26:45;;;;;;;8.73;1.35;;;;;;;11.69;100.00;99151.38;5010893;28;20900;-71
2022/05/28 01:29:15;;;;;;;5.18;1.20;;;;;;;11.56;100.00;99131.28;5016727;28;20034;-71
2022/05/28 01:31:41;;;;;;;8.77;1.63;;;;;;;11.59;100.00;99147.16;5010678;28;20032;-71
2022/05/28 01:34:08;;;;;;;7.72;1.55;;;;;;;11.41;100.00;99139.56;5011294;28;20022;-71
2022/05/28 01:36:35;;;;;;;7.03;1.52;;;;;;;11.47;100.00;99154.16;5008081;28;20041;-71
2022/05/28 01:39:02;;;;;;;8.05;1.55;;;;;;;11.39;100.00;99146.19;5011580;28;20026;-71
2022/05/28 01:41:31;;;;;;;8.40;1.50;;;;;;;11.41;100.00;99144.13;5011378;28;20117;-71
2022/05/28 01:43:57;;;;;;;9.52;1.80;;;;;;;11.46;100.00;99147.09;5011450;28;20489;-71
2022/05/28 01:46:27;;;;;;;7.80;1.70;;;;;;;11.34;100.00;99141.41;5009673;28;20079;-71
2022/05/28 01:48:54;;;;;;;7.65;1.50;;;;;;;11.32;100.00;99139.94;5008785;28;20025;-72
2022/05/28 01:51:22;;;;;;;9.90;1.65;;;;;;;11.22;100.00;99140.28;5009014;28;20022;-71
2022/05/28 01:54:07;;;;;;;5.10;1.50;;;;;;;11.12;100.00;99146.06;5012567;28;20030;-71
2022/05/28 01:56:33;;;;;;;6.40;1.60;;;;;;;10.93;100.00;99131.34;5008446;28;20430;-71
2022/05/28 01:58:59;;;;;;;7.80;1.25;;;;;;;10.73;100.00;99127.66;5006225;28;20034;-71
2022/05/28 02:01:24;;;;;;;5.57;1.30;;;;;;;10.67;100.00;99126.56;5011791;28;20084;-71
2022/05/28 02:03:55;;;;;;;8.30;1.50;;;;;;;10.68;100.00;99135.53;5009091;28;20510;-71
2022/05/28 02:06:21;;;;;;;5.65;1.50;;;;;;;10.66;100.00;99126.75;5009894;28;20066;-72
2022/05/28 02:08:49;;;;;;;7.43;1.38;;;;;;;10.70;100.00;99141.59;5008803;28;20492;-71
2022/05/28 02:11:22;;;;;;;11.93;1.70;;;;;;;10.69;100.00;99139.94;4992702;28;20026;-72
2022/05/28 02:14:05;;;;;;;6.38;1.17;;;;;;;10.58;100.00;99114.22;4992933;28;20026;-71
2022/05/28 02:16:36;;;;;;;7.30;1.40;;;;;;;10.77;100.00;99137.06;5001784;28;20479;-72
2022/05/28 02:19:08;;;;;;;9.73;1.30;;;;;;;10.72;100.00;99134.94;5008253;28;20056;-72
2022/05/28 02:21:49;;;;;;;7.70;2.22;;;;;;;10.67;100.00;99131.16;5010331;28;20119;-71
2022/05/28 02:24:32;;;;;;;7.03;2.03;;;;;;;10.58;100.00;99133.16;5004222;28;20109;-71
2022/05/28 02:27:02;;;;;;;10.35;1.92;;;;;;;10.37;100.00;99131.28;5008361;28;20018;-71
2022/05/28 02:29:30;;;;;;;5.68;1.75;;;;;;;10.16;100.00;99134.81;5004006;28;20372;-72
2022/05/28 02:31:56;;;;;;;7.20;2.08;;;;;;;9.92;100.00;99124.38;5010057;28;20017;-72
2022/05/28 02:34:21;;;;;;;8.98;2.08;;;;;;;9.77;100.00;99122.56;5010819;28;20104;-71
2022/05/28 02:36:46;;;;;;;6.85;1.90;;;;;;;9.66;100.00;99140.06;5009408;28;20083;-72
2022/05/28 02:39:12;;;;;;;8.98;2.17;;;;;;;9.28;100.00;99098.06;5010262;28;20022;-71
2022/05/28 02:41:38;;;;;;;8.82;2.15;;;;;;;9.32;100.00;99127.16;5007612;28;20046;-72
2022/05/28 02:44:03;;;;;;;6.15;2.08;;;;;;;9.13;100.00;99115.09;5011344;28;20395;-72
2022/05/28 02:46:29;;;;;;;7.75;2.08;;;;;;;9.09;100.00;99134.53;5007239;28;20084;-72
2022/05/28 02:48:55;;;;;;;5.75;1.80;;;;;;;8.85;100.00;99120.28;5009585;28;20030;-72
2022/05/28 02:51:22;;;;;;;8.52;2.00;;;;;;;8.76;100.00;99118.69;5010982;28;20428;-72
2022/05/28 02:53:50;;;;;;;9.23;2.13;;;;;;;8.76;100.00;99122.22;5010918;28;20022;-72
2022/05/28 02:56:16;;;;;;;7.68;2.20;;;;;;;8.72;100.00;99130.88;4998616;28;20033;-71
2022/05/28 02:58:41;;;;;;;6.60;2.35;;;;;;;8.51;100.00;99113.56;5011761;28;20361;-72
2022/05/28 03:01:27;;;;;;;6.53;1.70;;;;;;;8.55;100.00;99139.13;5012069;28;20109;-72
2022/05/28 03:03:54;;;;;;;9.45;2.42;;;;;;;8.42;100.00;99146.97;5014269;28;20033;-72
2022/05/28 03:06:19;;;;;;;6.30;1.83;;;;;;;8.24;100.00;99138.34;5008689;28;21971;-73
2022/05/28 03:08:45;;;;;;;6.40;1.98;;;;;;;8.25;100.00;99132.78;5043485;23;20034;-68
2022/05/28 03:11:10;;;;;;;7.82;2.10;;;;;;;8.21;100.00;99149.47;5042314;28;20081;-68
2022/05/28 03:13:36;;;;;;;5.28;1.88;;;;;;;8.01;100.00;99131.06;5040493;28;20072;-67
2022/05/28 03:16:02;;;;;;;4.95;1.98;;;;;;;8.07;100.00;99154.63;5041110;28;20506;-68
2022/05/28 03:18:27;;;;;;;13.50;2.15;;;;;;;7.94;100.00;99149.00;5039762;28;20044;-68
2022/05/28 03:20:53;;;;;;;6.50;1.90;;;;;;;7.83;100.00;99143.97;5042536;28;20092;-65
2022/05/28 03:23:18;;;;;;;12.00;2.25;;;;;;;7.86;100.00;99149.88;5042145;28;20095;-67
2022/05/28 03:25:43;;;;;;;2.55;1.45;;;;;;;7.87;100.00;99146.16;5035147;28;20029;-67
2022/05/28 03:28:09;;;;;;;8.00;1.90;;;;;;;7.77;100.00;99152.78;5043539;28;20025;-68
2022/05/28 03:30:34;;;;;;;7.45;2.15;;;;;;;7.67;100.00;99147.59;5040138;28;20463;-68
2022/05/28 03:33:00;;;;;;;7.43;2.00;;;;;;;7.39;100.00;99114.94;5036507;28;20040;-68
2022/05/28 03:35:25;;;;;;;11.75;1.85;;;;;;;7.33;100.00;99121.00;5035578;28;20029;-68
2022/05/28 03:37:50;;;;;;;4.70;1.98;;;;;;;7.48;100.00;99165.03;5020856;28;20038;-67
2022/05/28 03:40:16;;;;;;;16.20;2.50;;;;;;;7.42;100.00;99155.81;5032925;28;20021;-68
2022/05/28 03:42:41;;;;;;;9.20;2.08;;;;;;;7.60;100.00;99155.56;5032736;28;20022;-68
2022/05/28 03:45:07;;;;;;;9.73;2.00;;;;;;;7.77;100.00;99158.16;5032315;28;20018;-67
2022/05/28 03:47:33;;;;;;;10.10;1.80;;;;;;;7.59;100.00;99143.09;5033127;28;20497;-68
2022/05/28 03:49:59;;;;;;;8.52;2.13;;;;;;;7.69;100.00;99173.34;5029599;28;20135;-67
2022/05/28 03:52:24;;;;;;;12.98;2.03;;;;;;;7.65;100.00;99176.56;5026800;28;20538;-68
2022/05/28 03:54:50;;;;;;;9.98;1.80;;;;;;;7.60;100.00;99179.81;5033996;28;20605;-67
2022/05/28 03:57:34;;;;;;;9.60;2.15;;;;;;;7.56;100.00;99186.53;5021336;28;20014;-68
2022/05/28 04:00:01;;;;;;;10.95;2.33;;;;;;;7.52;100.00;99178.97;5030577;28;20040;-67
2022/05/28 04:02:26;;;;;;;7.55;1.85;;;;;;;7.53;100.00;99183.38;5034120;28;20099;-68
2022/05/28 04:04:52;;;;;;;6.25;1.58;;;;;;;7.50;100.00;99189.94;5032868;28;20033;-68
2022/05/28 04:07:18;;;;;;;9.18;1.75;;;;;;;7.40;100.00;99157.81;5029136;28;20040;-68
2022/05/28 04:09:44;;;;;;;7.45;2.10;;;;;;;7.64;100.00;99185.66;5029753;28;20021;-68
2022/05/28 04:12:10;;;;;;;10.05;2.00;;;;;;;7.74;100.00;99191.69;5028584;28;20099;-68
2022/05/28 04:14:36;;;;;;;5.72;1.88;;;;;;;7.76;100.00;99195.03;5031222;28;20398;-64
2022/05/28 04:17:02;;;;;;;11.32;1.80;;;;;;;7.78;100.00;99176.00;5021918;28;20044;-68
2022/05/28 04:19:27;;;;;;;6.97;1.67;;;;;;;7.71;100.00;99164.28;5021772;28;20017;-68
2022/05/28 04:21:53;;;;;;;5.38;1.80;;;;;;;7.76;100.00;99159.19;5028538;28;20079;-68
2022/05/28 04:24:18;;;;;;;9.90;1.88;;;;;;;7.92;100.00;99196.81;5032298;28;20029;-68
2022/05/28 04:26:43;;;;;;;9.00;1.80;;;;;;;8.07;100.00;99184.28;5027541;28;20435;-68
2022/05/28 04:29:09;;;;;;;11.02;1.85;;;;;;;8.18;100.00;99190.28;5028731;28;20049;-68
2022/05/28 04:31:34;;;;;;;5.00;1.60;;;;;;;8.05;100.00;99174.69;5028136;28;20740;-68
2022/05/28 04:34:00;;;;;;;5.18;1.65;;;;;;;8.19;100.00;99179.28;5031487;28;20018;-69
2022/05/28 04:36:25;;;;;;;14.15;1.95;;;;;;;8.31;100.00;99198.59;5033191;28;20044;-69
2022/05/28 04:38:51;;;;;;;6.15;1.60;;;;;;;8.33;100.00;99204.63;5033855;28;20541;-69
2022/05/28 04:41:17;;;;;;;5.53;1.70;;;;;;;8.35;100.00;99198.03;5030319;28;20405;-71
2022/05/28 04:43:42;;;;;;;9.48;1.90;;;;;;;8.52;100.00;99212.28;5028457;28;20116;-68
2022/05/28 04:46:07;;;;;;;9.48;2.33;;;;;;;8.60;100.00;99213.25;5024248;28;20081;-69
2022/05/28 04:48:33;;;;;;;11.05;2.20;;;;;;;8.70;100.00;99203.06;5031086;28;20501;-69
2022/05/28 04:50:59;;;;;;;7.55;1.40;;;;;;;8.86;100.00;99196.69;5031558;28;20037;-69
2022/05/28 04:53:24;;;;;;;7.35;2.40;;;;;;;9.05;100.00;99182.66;5030514;28;20025;-70
2022/05/28 04:55:50;;;;;;;8.02;1.85;;;;;;;9.34;100.00;99206.13;5033007;28;20368;-71
2022/05/28 04:58:15;;;;;;;7.75;1.70;;;;;;;9.58;100.00;99201.47;5025001;28;20521;-69
2022/05/28 05:00:42;;;;;;;7.95;1.70;;;;;;;9.58;100.00;99186.09;5029208;28;20029;-72
2022/05/28 05:03:08;;;;;;;12.63;1.70;;;;;;;9.65;100.00;99213.22;5028863;28;20049;-69
2022/05/28 05:05:34;;;;;;;11.15;2.10;;;;;;;9.79;100.00;99216.94;5028071;28;20033;-69
2022/05/28 05:07:59;;;;;;;8.48;1.55;;;;;;;9.84;100.00;99212.63;5032028;28;20108;-69
2022/05/28 05:10:25;;;;;;;9.05;1.67;;;;;;;9.87;100.00;99214.94;5030400;28;20109;-70
2022/05/28 05:12:50;;;;;;;5.45;1.45;;;;;;;9.95;100.00;99213.19;5030784;28;20025;-71
2022/05/28 05:15:16;;;;;;;6.57;1.63;;;;;;;10.06;100.00;99196.47;5032498;28;20025;-68
2022/05/28 05:17:41;;;;;;;6.97;1.50;;;;;;;10.25;100.00;99201.28;5030833;28;20021;-70
2022/05/28 05:20:08;;;;;;;12.93;1.70;;;;;;;10.31;100.00;99192.41;5028594;28;20493;-71
2022/05/28 05:22:34;;;;;;;5.55;1.75;;;;;;;10.48;100.00;99214.66;5026679;28;20032;-70
2022/05/28 05:24:59;;;;;;;4.35;1.50;;;;;;;10.66;100.00;99224.16;5023031;28;20440;-71
2022/05/28 05:27:24;;;;;;;9.00;1.95;;;;;;;10.78;100.00;99217.22;5031672;28;20029;-68
2022/05/28 05:29:50;;;;;;;10.57;1.65;;;;;;;11.18;100.00;99222.94;5029427;28;20091;-65
2022/05/28 05:32:15;;;;;;;5.32;1.55;;;;;;;11.38;100.00;99212.28;5028824;28;20398;-64
2022/05/28 05:34:42;;;;;;;11.00;1.77;;;;;;;11.48;100.00;99214.63;5022898;28;20021;-65
2022/05/28 05:37:07;;;;;;;6.80;1.65;;;;;;;11.81;100.00;99233.78;5031777;28;20021;-64
2022/05/28 05:39:33;;;;;;;12.35;1.45;;;;;;;11.99;100.00;99227.84;5028797;28;20680;-64
2022/05/28 05:41:58;;;;;;;5.55;1.60;;;;;;;12.15;100.00;99232.06;5028291;28;20033;-64
2022/05/28 05:44:24;;;;;;;4.85;1.38;;;;;;;12.31;100.00;99237.13;5027379;28;20036;-65
2022/05/28 05:46:49;;;;;;;7.05;1.58;;;;;;;12.43;100.00;99199.41;5019057;28;20050;-66
2022/05/28 05:49:14;;;;;;;5.78;1.58;;;;;;;12.81;100.00;99234.97;5026069;28;20063;-65
2022/05/28 05:51:45;;;;;;;7.20;1.17;;;;;;;13.01;95.95;99220.56;5024022;28;20032;-65
2022/05/28 05:54:11;;;;;;;5.63;1.20;;;;;;;13.15;96.90;99231.22;5022968;28;20379;-65
2022/05/28 05:56:37;;;;;;;6.63;1.38;;;;;;;13.19;93.93;99225.34;5022396;28;20017;-65
2022/05/28 05:59:02;;;;;;;6.93;1.40;;;;;;;13.20;91.37;99227.03;5022062;28;20507;-65
2022/05/28 06:01:28;;;;;;;6.28;1.58;;;;;;;13.36;90.76;99202.16;5020792;28;20033;-66
2022/05/28 06:03:53;;;;;;;5.60;1.60;;;;;;;13.49;86.53;99228.47;5031520;28;20552;-65
2022/05/28 06:06:20;;;;;;;6.25;1.30;;;;;;;13.54;88.62;99207.75;5032125;28;20025;-66
2022/05/28 06:08:46;;;;;;;7.28;1.35;;;;;;;13.80;83.96;99223.16;5028545;28;20036;-65
2022/05/28 06:11:12;;;;;;;4.80;1.33;;;;;;;13.99;82.22;99220.59;5031042;28;20033;-65
2022/05/28 06:13:37;;;;;;;5.90;1.70;;;;;;;14.25;85.86;99225.09;5026099;28;20026;-65
2022/05/28 06:16:03;;;;;;;6.82;1.30;;;;;;;14.43;81.23;99225.19;5029917;28;20032;-65
2022/05/28 06:18:30;;;;;;;7.15;1.23;;;;;;;14.51;83.69;99229.56;5027339;28;20021;-65
2022/05/28 06:20:55;;;;;;;6.88;1.30;;;;;;;14.67;76.05;99223.63;5025651;28;20397;-65
2022/05/28 06:23:21;;;;;;;5.95;1.27;;;;;;;14.77;74.42;99230.47;5019814;28;20026;-65
2022/05/28 06:25:46;;;;;;;9.55;1.75;;;;;;;14.85;70.66;99220.13;5021792;28;20491;-66
2022/05/28 06:28:12;;;;;;;7.55;1.50;;;;;;;14.92;70.38;99230.16;5020510;28;20028;-66
2022/05/28 06:30:39;;;;;;;7.55;1.45;;;;;;;14.96;69.38;99215.03;5019416;28;20108;-67
2022/05/28 06:33:05;;;;;;;13.05;2.10;;;;;;;15.43;68.32;99224.50;5031204;28;20104;-66
2022/05/28 06:35:31;;;;;;;11.43;1.50;;;;;;;15.97;67.80;99222.88;5023553;28;20444;-66
2022/05/28 06:37:56;;;;;;;4.45;1.13;;;;;;;16.11;67.96;99228.16;5041798;28;20039;-67
2022/05/28 06:40:21;;;;;;;9.52;1.42;;;;;;;16.44;60.58;99223.13;5031539;28;20033;-73
2022/05/28 06:42:47;;;;;;;6.18;1.77;;;;;;;16.79;57.34;99206.06;5032143;28;20364;-71
2022/05/28 06:45:14;;;;;;;10.38;1.10;;;;;;;17.15;57.89;99209.66;5035219;28;20103;-71
2022/05/28 06:47:44;;;;;;;14.07;1.40;;;;;;;17.45;51.89;99214.22;5034667;28;20021;-72
2022/05/28 06:52:57;;;;;;;7.93;0.98;;;;;;;18.72;47.42;99210.53;5025545;28;20041;-67
2022/05/28 06:55:23;;;;;;;4.78;1.10;;;;;;;20.92;45.06;99218.28;5029803;28;20022;-70
2022/05/28 06:57:48;;;;;;;8.07;1.40;;;;;;;21.62;41.02;99208.97;5035940;28;20048;-70
2022/05/28 07:00:14;;;;;;;8.00;1.33;;;;;;;22.54;40.46;99217.66;5035638;28;20024;-71
2022/05/28 07:02:40;;;;;;;6.45;1.48;;;;;;;23.03;40.35;99185.19;5030473;28;20025;-71
2022/05/28 07:05:05;;;;;;;4.82;1.23;;;;;;;24.08;37.33;99201.06;5033013;28;20030;-71
2022/05/28 07:07:31;;;;;;;5.20;1.05;;;;;;;25.00;35.77;99200.56;5035321;28;20018;-70
2022/05/28 07:09:56;;;;;;;6.47;1.25;;;;;;;25.47;35.14;99203.78;5033279;28;20029;-70
2022/05/28 07:12:21;;;;;;;9.70;1.50;;;;;;;25.90;34.34;99193.63;5035424;28;20025;-70
2022/05/28 07:14:46;;;;;;;4.57;1.10;;;;;;;26.19;33.10;99196.34;5035231;28;20068;-70
2022/05/28 07:17:12;;;;;;;7.57;1.23;;;;;;;26.19;33.46;99198.28;5034604;28;20017;-71
2022/05/28 07:19:37;;;;;;;5.07;1.10;;;;;;;26.54;32.30;99185.94;5029196;28;20032;-71
2022/05/28 07:22:03;;;;;;;5.40;1.30;;;;;;;25.68;33.37;99182.25;5033971;28;20397;-72
2022/05/28 07:24:28;;;;;;;9.65;1.17;;;;;;;26.33;32.43;99198.38;5028388;28;20040;-71
2022/05/28 07:26:53;;;;;;;9.00;1.33;;;;;;;27.08;32.42;99186.47;5033078;28;20026;-70
2022/05/28 07:29:19;;;;;;;5.43;1.58;;;;;;;26.74;30.85;99182.00;5031862;28;20536;-70
2022/05/28 07:31:45;;;;;;;9.93;1.45;;;;;;;26.50;31.51;99192.34;5025286;28;20025;-72
2022/05/28 07:34:11;;;;;;;5.70;1.10;;;;;;;26.71;31.01;99193.72;5028784;28;20025;-70
2022/05/28 07:36:36;;;;;;;6.95;1.10;;;;;;;26.33;31.26;99170.63;5031623;28;20415;-68
2022/05/28 07:39:03;;;;;;;5.50;1.15;;;;;;;26.56;31.04;99175.31;5033702;28;20039;-67
2022/05/28 07:41:29;;;;;;;5.63;1.02;;;;;;;27.73;30.48;99180.06;5029373;28;20395;-72
2022/05/28 07:43:55;;;;;;;4.50;1.00;;;;;;;28.42;28.28;99182.81;5034846;28;20023;-71
2022/05/28 07:46:23;;;;;;;2.67;0.85;;;;;;;28.52;28.13;99173.47;5033467;28;20548;-70
2022/05/28 07:48:49;;;;;;;10.30;0.95;;;;;;;28.53;27.86;99162.03;5030005;28;20029;-70
2022/05/28 07:51:15;;;;;;;4.18;0.90;;;;;;;29.23;28.28;99179.28;5026860;28;20142;-70
2022/05/28 07:53:41;;;;;;;5.65;1.05;;;;;;;28.72;27.47;99163.81;5033008;28;20021;-69
2022/05/28 07:56:07;;;;;;;7.97;1.10;;;;;;;27.85;29.87;99157.31;5031427;28;20033;-68
2022/05/28 07:58:33;;;;;;;5.60;1.30;;;;;;;27.90;29.56;99157.22;5030730;28;20053;-70
2022/05/28 08:00:59;;;;;;;3.95;1.00;;;;;;;27.68;29.30;99167.06;5029151;28;20076;-65
2022/05/28 08:03:24;;;;;;;4.93;1.00;;;;;;;28.30;29.40;99149.97;5033356;28;20500;-72
2022/05/28 08:05:51;;;;;;;9.27;1.20;;;;;;;27.31;30.58;99154.97;5033546;28;20025;-73
2022/05/28 08:08:19;;;;;;;6.93;1.33;;;;;;;27.93;29.57;99140.75;5025701;28;20036;-71
2022/05/28 08:10:45;;;;;;;4.35;1.00;;;;;;;26.96;30.57;99156.41;5033903;28;20078;-70
2022/05/28 08:13:13;;;;;;;7.65;1.13;;;;;;;24.23;34.26;99167.81;5031814;28;20033;-70
2022/05/28 08:15:40;;;;;;;8.13;1.40;;;;;;;25.84;32.73;99157.94;5036553;28;21677;-71
2022/05/28 08:18:07;;;;;;;7.22;1.40;;;;;;;27.98;29.37;99145.38;5033882;28;20645;-70
2022/05/28 08:23:19;;;;;;;4.68;1.00;;;;;;;28.05;27.83;99156.91;5033369;28;20221;-72
2022/05/28 08:25:45;;;;;;;6.80;1.20;;;;;;;27.42;28.06;99149.25;5025695;28;20058;-73
2022/05/28 08:28:12;;;;;;;5.05;1.25;;;;;;;29.30;26.70;99135.06;5027941;28;20034;-74
2022/05/28 08:30:39;;;;;;;4.75;1.15;;;;;;;31.66;25.75;99137.81;5033634;28;20442;-75
2022/05/28 08:33:06;;;;;;;3.83;0.90;;;;;;;28.70;27.43;99143.81;5026508;28;20029;-72
2022/05/28 08:35:31;;;;;;;6.15;1.00;;;;;;;26.70;28.95;99152.38;5026316;28;20132;-70
2022/05/28 08:37:56;;;;;;;4.88;0.82;;;;;;;26.97;29.46;99141.38;5028635;28;20553;-69
2022/05/28 08:40:23;;;;;;;4.75;1.27;;;;;;;23.42;33.38;99138.50;5032363;28;20029;-67
2022/05/28 08:42:49;;;;;;;8.02;1.27;;;;;;;24.93;34.57;99156.56;5027081;28;20030;-63
2022/05/28 08:45:17;;;;;;;5.20;1.23;;;;;;;27.36;30.81;99145.75;5031206;28;20080;-67
2022/05/28 08:47:46;;;;;;;5.05;1.27;;;;;;;25.82;31.56;99151.88;5032679;28;20035;-68
2022/05/28 08:50:12;;;;;;;7.60;1.10;;;;;;;24.39;33.62;99143.69;5032447;28;20112;-67
2022/05/28 08:52:43;;;;;;;5.20;1.23;;;;;;;23.55;35.15;99157.28;5033174;28;20064;-69
2022/05/28 08:55:17;;;;;;;6.93;1.00;;;;;;;26.47;30.94;99148.53;5026376;28;20028;-69
2022/05/28 08:57:53;;;;;;;6.97;1.00;;;;;;;28.73;28.62;99140.41;5023955;28;20037;-69
2022/05/28 09:00:32;;;;;;;2.95;0.75;;;;;;;30.45;27.05;99132.38;5031147;28;20057;-68
2022/05/28 09:03:16;;;;;;;4.85;1.27;;;;;;;29.37;27.08;99134.59;5027852;28;20434;-69
2022/05/28 09:05:59;;;;;;;6.45;1.15;;;;;;;25.87;31.25;99137.97;5024902;28;20467;-68
2022/05/28 09:08:38;;;;;;;3.53;0.98;;;;;;;23.46;34.68;99136.84;5024001;28;20013;-70
2022/05/28 09:11:09;;;;;;;4.75;1.00;;;;;;;21.45;38.60;99137.53;5024795;28;20052;-70
2022/05/28 09:13:45;;;;;;;6.47;1.15;;;;;;;22.89;37.24;99136.06;5025666;28;20032;-70
2022/05/28 09:16:31;;;;;;;6.22;1.10;;;;;;;24.02;34.90;99133.06;5026863;28;20029;-68
2022/05/28 09:19:07;;;;;;;5.50;1.20;;;;;;;23.39;34.74;99114.22;5037225;28;20033;-68
2022/05/28 09:21:32;;;;;;;4.55;0.90;;;;;;;23.44;35.13;99130.78;5019936;28;20032;-69
2022/05/28 09:24:04;;;;;;;5.43;1.00;;;;;;;24.17;35.69;99121.13;5022847;28;20025;-70
2022/05/28 09:26:45;;;;;;;4.57;0.90;;;;;;;24.39;34.67;99127.09;5023029;28;20018;-70
2022/05/28 09:29:39;;;;;;;5.28;1.17;;;;;;;23.96;35.32;99132.28;5028067;28;20090;-69
2022/05/28 09:32:22;;;;;;;7.95;1.10;;;;;;;26.47;31.07;99121.63;5036613;28;20026;-69
2022/05/28 09:35:26;;;;;;;6.90;1.10;;;;;;;25.98;32.09;99120.91;5021290;28;20028;-68
2022/05/28 09:38:20;;;;;;;5.75;1.02;;;;;;;24.42;33.56;99123.75;5025327;28;20084;-68
2022/05/28 09:40:51;;;;;;;5.40;1.05;;;;;;;22.33;37.21;99110.38;5020772;28;20042;-70
2022/05/28 09:43:38;;;;;;;4.03;1.20;;;;;;;20.74;39.78;99074.59;5024052;28;20022;-69
2022/05/28 09:46:16;;;;;;;6.43;1.02;;;;;;;20.75;41.28;99127.66;5025157;28;20056;-66
2022/05/28 09:48:42;;;;;;;5.78;1.23;;;;;;;23.84;35.80;99113.28;5027884;28;20031;-66
2022/05/28 09:51:25;;;;;;;5.15;1.20;;;;;;;27.22;31.18;99104.06;5026769;28;20108;-66
2022/05/28 09:54:18;;;;;;;5.97;1.02;;;;;;;27.54;29.62;99110.66;5029898;28;20503;-66
2022/05/28 09:56:51;;;;;;;4.88;0.98;;;;;;;28.79;27.03;99112.13;5026819;28;20412;-66
2022/05/28 09:59:38;;;;;;;3.00;0.80;;;;;;;27.48;28.90;99078.53;5024062;28;20029;-66
2022/05/28 10:02:07;;;;;;;4.82;0.90;;;;;;;25.17;32.89;99116.28;5025759;28;20021;-65
2022/05/28 10:04:53;;;;;;;5.07;1.00;;;;;;;25.47;31.17;99096.56;5025595;28;20021;-65
2022/05/28 10:07:38;;;;;;;5.07;1.20;;;;;;;23.14;35.06;99107.66;5026543;28;20084;-65
2022/05/28 10:10:15;;;;;;;4.55;1.00;;;;;;;21.35;36.71;99092.59;5026037;28;20033;-68
2022/05/28 10:12:41;;;;;;;6.47;1.10;;;;;;;19.45;41.33;99112.72;5029157;28;20082;-61
2022/05/28 10:15:16;;;;;;;5.00;0.93;;;;;;;19.10;42.29;99098.50;5030220;28;20037;-68
2022/05/28 10:17:43;;;;;;;6.20;1.20;;;;;;;22.69;35.18;99083.66;5029415;28;20112;-68
2022/05/28 10:20:18;;;;;;;6.22;1.17;;;;;;;25.33;32.81;99090.06;5030980;28;20086;-64
2022/05/28 10:22:46;;;;;;;4.10;0.98;;;;;;;25.34;30.20;99088.97;5030180;28;20033;-65
2022/05/28 10:25:30;;;;;;;6.80;1.65;;;;;;;26.60;29.54;99081.22;5024124;28;20033;-63
2022/05/28 10:27:56;;;;;;;4.47;0.68;;;;;;;26.82;27.73;99075.81;5029362;28;20075;-62
2022/05/28 10:30:34;;;;;;;4.88;1.10;;;;;;;27.42;28.23;99071.44;5028379;28;20064;-63
2022/05/28 10:33:04;;;;;;;3.53;0.88;;;;;;;27.01;28.28;99050.81;5028956;28;20076;-70
2022/05/28 10:35:31;;;;;;;3.75;0.80;;;;;;;28.21;28.95;99070.34;5023540;28;20030;-66
2022/05/28 10:38:11;;;;;;;3.88;0.88;;;;;;;27.03;28.38;99083.81;5019853;28;20029;-68
2022/05/28 10:40:53;;;;;;;5.03;0.88;;;;;;;26.69;29.86;99073.00;5031261;28;20032;-68
2022/05/28 10:43:27;;;;;;;3.92;0.85;;;;;;;25.19;31.90;99078.03;5029606;28;20486;-68
2022/05/28 10:46:13;;;;;;;8.13;1.00;;;;;;;23.13;34.74;99078.41;5026761;28;20034;-68
2022/05/28 10:49:14;;;;;;;7.95;0.93;;;;;;;23.57;34.63;99082.41;5021647;28;20462;-68
2022/05/28 10:51:59;;;;;;;6.10;1.10;;;;;;;25.90;31.96;99068.91;5008026;28;20402;-68
2022/05/28 10:54:46;;;;;;;3.58;1.05;;;;;;;28.45;28.24;99062.53;5025248;28;20025;-68
2022/05/28 10:57:38;;;;;;;4.65;0.95;;;;;;;29.29;27.02;99052.59;5022241;28;20033;-68
2022/05/28 11:00:12;;;;;;;3.33;0.80;;;;;;;30.36;24.94;99057.78;5026347;28;20056;-68
2022/05/28 11:02:59;;;;;;;5.55;1.08;;;;;;;29.16;25.16;99047.94;5028721;28;20371;-68
2022/05/28 11:05:45;;;;;;;3.20;0.98;;;;;;;30.58;23.72;99050.41;5024513;28;20451;-68
2022/05/28 11:08:29;;;;;;;7.25;1.10;;;;;;;30.18;24.43;99053.34;5024613;28;20045;-68
2022/05/28 11:11:02;;;;;;;2.28;0.57;;;;;;;29.12;26.77;99053.34;5020636;28;20439;-68
2022/05/28 11:13:35;;;;;;;3.75;0.75;;;;;;;27.06;27.82;99058.19;5026190;28;20143;-68
2022/05/28 11:16:09;;;;;;;5.43;1.08;;;;;;;25.03;31.36;99047.72;5027479;28;20026;-68
2022/05/28 11:18:54;;;;;;;5.28;1.02;;;;;;;23.48;33.81;99053.72;5027519;28;20027;-68
2022/05/28 11:21:31;;;;;;;4.30;1.10;;;;;;;22.26;34.11;99041.72;5020355;28;20115;-67
2022/05/28 11:24:28;;;;;;;2.85;0.85;;;;;;;20.56;36.51;99055.75;5029990;28;20025;-67
2022/05/28 11:27:02;;;;;;;3.97;0.90;;;;;;;22.14;34.31;99041.09;5022569;28;20108;-67
2022/05/28 11:29:49;;;;;;;3.22;0.70;;;;;;;23.67;33.29;99012.47;5031277;28;20438;-68
2022/05/28 11:32:41;;;;;;;6.70;0.70;;;;;;;24.34;32.17;99024.78;5031730;28;20099;-68
2022/05/28 11:35:25;;;;;;;5.43;0.82;;;;;;;24.93;31.09;99026.47;5020572;28;20045;-67
2022/05/28 11:37:59;;;;;;;6.00;0.70;;;;;;;26.69;30.99;99023.88;5027834;28;20029;-67
2022/05/28 11:40:28;;;;;;;6.03;1.00;;;;;;;28.38;26.97;99014.84;5012438;28;20041;-68
2022/05/28 11:43:01;;;;;;;2.03;0.60;;;;;;;28.47;26.66;99010.16;5022341;28;20141;-67
2022/05/28 11:45:51;;;;;;;2.80;0.60;;;;;;;26.88;28.32;98999.66;5025477;28;20079;-67
2022/05/28 11:48:24;;;;;;;3.78;0.88;;;;;;;27.25;28.82;99000.66;5030827;28;20114;-68